Time;durP1;ratioP1;P1;durP2;ratioP2;P2;SDS_P1;SDS_P2;PMS_P1;PMS_P2;Temp;Humidity;BMP_temperature;BMP_pressure;BME280_temperature;BME280_humidity;BME280_pressure;Samples;Min_cycle;Max_cycle;Signal;HPM_P1;HPM_P2
2021/06/27 00:00:12;;;;;;;69.25;64.05;;;;;;;19.60;100.00;100736.66;5093774;28;20044;-78
2021/06/27 00:02:39;;;;;;;74.00;68.75;;;;;;;19.67;100.00;100730.00;5095716;28;20044;-79
2021/06/27 00:05:09;;;;;;;76.72;70.65;;;;;;;19.65;100.00;100720.56;5088696;28;20044;-80
2021/06/27 00:07:36;;;;;;;81.15;75.25;;;;;;;19.46;100.00;100733.69;5076882;28;20135;-79
2021/06/27 00:10:07;;;;;;;91.30;84.32;;;;;;;19.30;100.00;100732.00;5086823;28;20056;-79
2021/06/27 00:12:34;;;;;;;90.50;83.88;;;;;;;19.30;100.00;100727.41;5086912;28;20044;-80
2021/06/27 00:15:01;;;;;;;78.10;71.80;;;;;;;19.44;100.00;100733.13;5085940;28;20059;-80
2021/06/27 00:17:28;;;;;;;102.22;94.70;;;;;;;19.32;100.00;100730.66;5084703;28;20044;-79
2021/06/27 00:19:55;;;;;;;78.07;72.53;;;;;;;19.27;100.00;100738.72;5089354;28;20472;-79
2021/06/27 00:22:21;;;;;;;74.00;68.53;;;;;;;19.30;100.00;100740.06;5088815;28;20052;-80
2021/06/27 00:24:51;;;;;;;101.85;94.75;;;;;;;19.17;100.00;100755.63;5089211;28;20041;-79
2021/06/27 00:27:20;;;;;;;106.72;98.70;;;;;;;18.88;100.00;100759.78;5089853;28;20044;-80
2021/06/27 00:29:49;;;;;;;100.20;93.25;;;;;;;19.25;100.00;100753.53;5091242;28;20130;-80
2021/06/27 00:32:16;;;;;;;97.55;89.95;;;;;;;19.02;100.00;100752.88;5084800;28;20127;-79
2021/06/27 00:34:45;;;;;;;95.70;88.45;;;;;;;18.54;100.00;100762.75;5085613;28;20052;-79
2021/06/27 00:37:13;;;;;;;101.35;93.78;;;;;;;18.72;100.00;100767.72;5087918;28;20060;-79
2021/06/27 00:39:40;;;;;;;88.60;81.88;;;;;;;18.95;100.00;100760.38;5093929;28;20048;-80
2021/06/27 00:42:07;;;;;;;89.10;82.40;;;;;;;18.90;100.00;100758.44;5085023;28;20059;-79
2021/06/27 00:44:37;;;;;;;75.72;70.10;;;;;;;19.13;100.00;100765.31;5085497;28;20053;-79
2021/06/27 00:47:05;;;;;;;83.50;77.07;;;;;;;18.82;100.00;100768.88;5075283;28;20465;-79
2021/06/27 00:49:31;;;;;;;86.57;79.82;;;;;;;18.89;100.00;100769.47;5087064;28;20089;-80
2021/06/27 00:51:58;;;;;;;91.97;85.53;;;;;;;18.79;100.00;100777.47;5089859;28;20048;-80
2021/06/27 00:54:25;;;;;;;100.47;93.43;;;;;;;18.66;100.00;100778.69;5086086;28;20052;-78
2021/06/27 00:56:52;;;;;;;108.18;100.47;;;;;;;18.41;100.00;100787.38;5077730;28;20060;-80
2021/06/27 00:59:19;;;;;;;105.47;97.78;;;;;;;18.49;100.00;100795.00;5087159;28;20052;-80
2021/06/27 01:01:47;;;;;;;95.63;88.65;;;;;;;18.54;100.00;100795.81;5080819;28;20048;-79
2021/06/27 01:04:14;;;;;;;98.82;91.70;;;;;;;18.46;100.00;100800.88;5092019;28;20109;-79
2021/06/27 01:06:42;;;;;;;103.97;95.97;;;;;;;18.44;100.00;100808.38;5086578;28;20048;-79
2021/06/27 01:09:09;;;;;;;110.38;102.18;;;;;;;18.05;100.00;100811.25;5082165;28;20465;-79
2021/06/27 01:11:36;;;;;;;118.38;109.38;;;;;;;17.96;100.00;100810.88;5082722;28;20052;-79
2021/06/27 01:14:03;;;;;;;104.35;96.78;;;;;;;18.08;100.00;100818.81;5087520;28;20045;-79
2021/06/27 01:16:30;;;;;;;102.88;95.22;;;;;;;18.27;100.00;100824.63;5087559;28;20477;-78
2021/06/27 01:19:00;;;;;;;100.18;92.28;;;;;;;18.14;100.00;100831.22;5084647;28;20044;-80
2021/06/27 01:21:28;;;;;;;103.13;95.25;;;;;;;18.20;100.00;100832.09;5082806;28;20075;-79
2021/06/27 01:23:55;;;;;;;110.55;101.80;;;;;;;18.18;100.00;100836.91;5091277;28;20047;-78
2021/06/27 01:26:23;;;;;;;101.07;93.38;;;;;;;17.84;100.00;100831.72;5084180;28;20052;-79
2021/06/27 01:28:50;;;;;;;112.97;104.50;;;;;;;17.93;100.00;100829.38;5084000;28;20047;-80
2021/06/27 01:31:17;;;;;;;117.78;108.93;;;;;;;17.89;100.00;100830.97;5087112;28;20048;-80
2021/06/27 01:33:48;;;;;;;114.20;105.78;;;;;;;18.04;100.00;100836.50;5085516;28;20055;-79
2021/06/27 01:36:15;;;;;;;108.97;100.97;;;;;;;18.00;100.00;100830.00;5074527;28;20052;-80
2021/06/27 01:38:43;;;;;;;103.65;95.85;;;;;;;17.95;100.00;100836.13;5077651;28;20500;-79
2021/06/27 01:41:10;;;;;;;99.43;92.05;;;;;;;18.10;100.00;100848.13;5087569;28;20048;-81
2021/06/27 01:43:37;;;;;;;109.85;101.68;;;;;;;18.15;100.00;100857.03;5084343;28;20044;-78
2021/06/27 01:46:04;;;;;;;108.88;101.18;;;;;;;17.98;100.00;100859.00;5085747;28;20454;-79
2021/06/27 01:48:32;;;;;;;106.10;97.40;;;;;;;18.06;100.00;100861.22;5081332;28;20110;-80
2021/06/27 01:51:00;;;;;;;104.75;97.25;;;;;;;18.07;100.00;100863.69;5080044;28;20044;-81
2021/06/27 01:53:29;;;;;;;108.00;100.10;;;;;;;17.99;100.00;100866.00;5091465;28;20127;-80
2021/06/27 01:56:08;;;;;;;111.65;103.63;;;;;;;17.96;100.00;100863.81;5084020;28;20040;-78
2021/06/27 01:58:38;;;;;;;124.90;116.03;;;;;;;17.75;100.00;100868.91;5081300;28;20444;-79
2021/06/27 02:01:07;;;;;;;108.40;100.63;;;;;;;17.73;100.00;100879.13;5189810;22;20315;-77
2021/06/27 02:03:34;;;;;;;110.18;102.55;;;;;;;18.11;100.00;100884.69;5053805;28;20068;-80
2021/06/27 02:06:01;;;;;;;99.78;92.88;;;;;;;18.20;100.00;100892.03;5054084;28;20435;-79
2021/06/27 02:08:33;;;;;;;111.00;103.60;;;;;;;18.27;100.00;100900.72;5053586;28;20049;-79
2021/06/27 02:11:01;;;;;;;108.15;100.53;;;;;;;18.31;100.00;100907.22;5053242;28;20082;-79
2021/06/27 02:13:28;;;;;;;96.53;89.68;;;;;;;18.52;100.00;100912.81;5053528;28;20053;-80
2021/06/27 02:15:55;;;;;;;111.90;104.13;;;;;;;18.63;100.00;100919.91;5055975;28;20071;-80
2021/06/27 02:18:31;;;;;;;99.07;91.80;;;;;;;18.57;100.00;100923.59;5056968;28;20049;-79
2021/06/27 02:20:59;;;;;;;103.25;95.70;;;;;;;18.58;100.00;100922.56;5051189;28;20038;-80
2021/06/27 02:23:27;;;;;;;106.05;98.07;;;;;;;18.80;100.00;100925.22;5060340;28;20049;-79
2021/06/27 02:25:54;;;;;;;109.93;101.05;;;;;;;18.79;100.00;100920.06;5056198;28;20397;-79
2021/06/27 02:28:22;;;;;;;103.63;95.93;;;;;;;18.73;100.00;100914.66;5059647;28;20068;-80
2021/06/27 02:30:49;;;;;;;107.53;99.05;;;;;;;18.73;100.00;100914.66;5059836;28;20443;-80
2021/06/27 02:33:18;;;;;;;106.28;98.47;;;;;;;18.82;100.00;100906.09;5057396;28;20118;-80
2021/06/27 02:35:45;;;;;;;107.53;99.85;;;;;;;18.72;100.00;100909.50;5059242;28;20064;-79
2021/06/27 02:38:12;;;;;;;104.68;96.97;;;;;;;18.53;100.00;100912.56;5060589;28;20046;-81
2021/06/27 02:40:41;;;;;;;114.38;105.45;;;;;;;18.66;100.00;100905.13;5059113;28;20055;-79
2021/06/27 02:43:09;;;;;;;107.20;99.50;;;;;;;18.50;100.00;100909.56;5057977;28;20469;-79
2021/06/27 02:45:38;;;;;;;108.85;100.72;;;;;;;18.40;100.00;100907.59;5059395;28;20044;-78
2021/06/27 02:48:05;;;;;;;121.25;112.57;;;;;;;18.16;100.00;100914.31;5060576;28;20044;-78
2021/06/27 02:50:34;;;;;;;120.45;111.53;;;;;;;18.30;100.00;100918.22;5058050;28;20056;-79
2021/06/27 02:53:01;;;;;;;118.65;109.95;;;;;;;18.47;100.00;100910.88;5058348;28;20095;-79
2021/06/27 02:55:28;;;;;;;109.32;101.32;;;;;;;18.48;100.00;100920.56;5058413;28;20041;-79
2021/06/27 02:57:56;;;;;;;122.95;113.80;;;;;;;18.32;100.00;100913.41;5057498;28;20037;-79
2021/06/27 03:00:23;;;;;;;106.45;98.82;;;;;;;18.47;100.00;100910.88;5058565;28;20044;-79
2021/06/27 03:02:51;;;;;;;131.10;122.35;;;;;;;18.41;100.00;100914.59;5086701;28;20071;-79
2021/06/27 03:05:18;;;;;;;139.57;129.25;;;;;;;18.39;100.00;100908.63;5097133;28;20464;-78
2021/06/27 03:07:45;;;;;;;122.18;112.78;;;;;;;18.39;100.00;100914.00;5096912;28;20419;-79
2021/06/27 03:10:14;;;;;;;104.00;95.63;;;;;;;18.45;100.00;100904.94;5097457;28;20048;-80
2021/06/27 03:12:42;;;;;;;116.10;107.70;;;;;;;18.56;100.00;100894.28;5096814;28;20052;-79
2021/06/27 03:15:11;;;;;;;113.88;105.45;;;;;;;18.67;100.00;100887.91;5097236;28;20071;-78
2021/06/27 03:17:38;;;;;;;122.57;113.97;;;;;;;18.49;100.00;100887.25;5097549;28;20071;-77
2021/06/27 03:20:09;;;;;;;117.10;109.07;;;;;;;18.43;100.00;100874.81;5098251;28;20125;-79
2021/06/27 03:22:36;;;;;;;112.97;104.25;;;;;;;18.75;100.00;100869.47;5098148;28;20048;-78
2021/06/27 03:25:05;;;;;;;109.05;100.82;;;;;;;18.70;100.00;100871.28;5098040;28;20507;-79
2021/06/27 03:27:32;;;;;;;105.18;96.55;;;;;;;18.81;100.00;100877.59;5096725;28;20040;-78
2021/06/27 03:29:59;;;;;;;99.82;92.50;;;;;;;18.80;100.00;100863.31;5098350;28;20040;-78
2021/06/27 03:32:25;;;;;;;114.90;106.40;;;;;;;18.85;100.00;100882.22;5098043;28;20048;-79
2021/06/27 03:34:52;;;;;;;107.93;100.10;;;;;;;18.81;100.00;100894.53;5098027;28;20043;-78
2021/06/27 03:37:20;;;;;;;107.30;99.97;;;;;;;18.96;100.00;100901.94;5097453;28;20052;-78
2021/06/27 03:39:49;;;;;;;117.28;108.35;;;;;;;19.06;100.00;100907.38;5098465;28;20483;-80
2021/06/27 03:42:16;;;;;;;116.28;108.07;;;;;;;19.16;100.00;100906.66;5095382;28;20050;-77
2021/06/27 03:44:42;;;;;;;130.48;122.03;;;;;;;19.24;100.00;100919.63;5098436;28;20055;-79
2021/06/27 03:47:09;;;;;;;104.47;97.07;;;;;;;19.15;100.00;100913.94;5098300;28;20434;-78
2021/06/27 03:49:36;;;;;;;100.43;93.07;;;;;;;19.12;100.00;100906.38;5098171;28;20462;-78
2021/06/27 03:52:03;;;;;;;89.65;82.97;;;;;;;19.17;100.00;100903.69;5097902;28;20052;-79
2021/06/27 03:54:33;;;;;;;103.82;96.32;;;;;;;19.38;100.00;100901.97;5096144;28;20052;-78
2021/06/27 03:57:01;;;;;;;105.53;97.90;;;;;;;19.54;100.00;100915.50;5097698;28;20040;-78
2021/06/27 03:59:28;;;;;;;99.25;92.63;;;;;;;19.35;100.00;100917.81;5097678;28;20059;-80
2021/06/27 04:01:54;;;;;;;104.53;97.25;;;;;;;19.37;100.00;100905.72;5098574;28;20063;-79
2021/06/27 04:04:21;;;;;;;113.60;105.00;;;;;;;19.47;100.00;100904.16;5096887;28;20048;-79
2021/06/27 04:06:48;;;;;;;101.40;94.68;;;;;;;19.54;100.00;100907.44;5098498;28;20052;-79
2021/06/27 04:09:15;;;;;;;96.07;89.00;;;;;;;19.67;100.00;100899.75;5097909;28;20122;-80
2021/06/27 04:11:43;;;;;;;97.97;91.05;;;;;;;19.62;100.00;100886.19;5098598;28;20040;-79
2021/06/27 04:14:09;;;;;;;100.32;93.18;;;;;;;19.72;100.00;100865.78;5098837;28;20048;-79
2021/06/27 04:16:37;;;;;;;97.57;90.57;;;;;;;19.70;100.00;100863.38;5097853;28;20598;-78
2021/06/27 04:19:04;;;;;;;98.63;91.30;;;;;;;19.68;100.00;100863.63;5096680;28;20052;-79
2021/06/27 04:21:31;;;;;;;92.47;85.30;;;;;;;19.92;100.00;100851.59;5097656;28;20048;-81
2021/06/27 04:23:57;;;;;;;99.65;92.55;;;;;;;19.93;100.00;100837.84;5097001;28;20460;-78
2021/06/27 04:26:24;;;;;;;88.88;82.30;;;;;;;19.85;100.00;100825.72;5091304;28;20392;-78
2021/06/27 04:28:53;;;;;;;97.20;90.03;;;;;;;19.98;100.00;100821.69;5089960;28;20041;-77
2021/06/27 04:31:19;;;;;;;89.47;82.43;;;;;;;20.12;100.00;100809.34;5091738;28;20054;-80
2021/06/27 04:33:46;;;;;;;91.60;85.20;;;;;;;20.11;100.00;100806.88;5091449;28;20048;-78
2021/06/27 04:36:13;;;;;;;90.78;84.78;;;;;;;20.14;100.00;100804.47;5092301;28;20407;-80
2021/06/27 04:38:40;;;;;;;76.72;71.43;;;;;;;20.32;100.00;100805.03;5089628;28;20055;-78
2021/06/27 04:41:06;;;;;;;78.72;73.05;;;;;;;20.37;100.00;100807.72;5089481;28;20063;-79
2021/06/27 04:43:33;;;;;;;82.88;77.07;;;;;;;20.41;100.00;100800.72;5090006;28;20051;-78
2021/06/27 04:46:01;;;;;;;89.65;83.13;;;;;;;20.60;100.00;100803.69;5086979;28;20486;-78
2021/06/27 04:48:28;;;;;;;87.00;80.40;;;;;;;20.60;100.00;100795.59;5094916;28;20052;-79
2021/06/27 04:50:55;;;;;;;83.90;78.28;;;;;;;20.68;100.00;100813.16;5094287;28;20044;-78
2021/06/27 04:53:23;;;;;;;90.15;83.53;;;;;;;20.74;100.00;100828.25;5085632;28;20484;-79
2021/06/27 04:55:50;;;;;;;82.70;76.65;;;;;;;20.76;100.00;100824.22;5097872;28;20048;-82
2021/06/27 04:58:17;;;;;;;94.72;88.28;;;;;;;21.00;100.00;100837.97;5099847;28;20384;-79
2021/06/27 05:00:46;;;;;;;94.85;88.28;;;;;;;21.15;100.00;100845.22;5097318;28;20135;-80
2021/06/27 05:03:14;;;;;;;85.60;79.68;;;;;;;21.30;100.00;100843.56;5101082;28;20048;-81
2021/06/27 05:05:41;;;;;;;77.57;72.13;;;;;;;21.37;100.00;100850.34;5096846;28;20051;-79
2021/06/27 05:08:08;;;;;;;83.18;77.32;;;;;;;21.36;100.00;100856.00;5096808;28;20187;-79
2021/06/27 05:10:36;;;;;;;81.00;75.28;;;;;;;21.59;100.00;100855.38;5099325;28;20055;-84
2021/06/27 05:13:03;;;;;;;76.45;71.07;;;;;;;21.80;100.00;100852.59;5091122;28;20105;-80
2021/06/27 05:15:32;;;;;;;78.75;72.38;;;;;;;21.64;100.00;100857.28;5099547;28;20061;-81
2021/06/27 05:18:01;;;;;;;93.18;86.63;;;;;;;21.76;100.00;100868.56;5102566;28;20044;-81
2021/06/27 05:20:31;;;;;;;62.55;57.88;;;;;;;21.79;100.00;100859.09;5097230;28;20063;-80
2021/06/27 05:23:29;;;;;;;56.53;52.38;;;;;;;21.84;100.00;100878.78;5090076;28;20479;-79
2021/06/27 05:25:56;;;;;;;59.17;54.95;;;;;;;21.93;100.00;100874.41;5096913;28;20052;-79
2021/06/27 05:28:23;;;;;;;57.08;53.05;;;;;;;21.99;100.00;100877.09;5094555;28;20139;-79
2021/06/27 05:30:49;;;;;;;59.72;55.45;;;;;;;22.20;100.00;100873.22;5098559;28;20052;-80
2021/06/27 05:33:16;;;;;;;53.75;49.85;;;;;;;22.14;100.00;100885.94;5102196;28;20028;-81
2021/06/27 05:35:44;;;;;;;50.97;47.05;;;;;;;22.19;100.00;100879.75;5096498;28;20108;-80
2021/06/27 05:38:11;;;;;;;48.47;44.70;;;;;;;22.18;100.00;100895.16;5095265;28;20465;-81
2021/06/27 05:40:39;;;;;;;53.42;49.72;;;;;;;22.26;100.00;100893.75;5094435;28;20476;-83
2021/06/27 05:43:06;;;;;;;45.17;41.97;;;;;;;22.29;100.00;100900.50;5092991;28;20070;-80
2021/06/27 05:45:33;;;;;;;47.38;43.58;;;;;;;22.40;100.00;100893.94;5097927;28;20044;-80
2021/06/27 05:48:00;;;;;;;51.28;47.33;;;;;;;22.40;100.00;100899.38;5097534;28;20081;-80
2021/06/27 05:50:27;;;;;;;45.17;41.63;;;;;;;22.40;100.00;100902.06;5098730;28;20487;-81
2021/06/27 05:52:55;;;;;;;41.35;38.13;;;;;;;22.55;100.00;100896.56;5099827;28;20048;-79
2021/06/27 05:55:22;;;;;;;43.95;40.78;;;;;;;22.55;100.00;100895.75;5105278;28;20055;-84
2021/06/27 05:57:48;;;;;;;41.75;38.67;;;;;;;22.68;100.00;100910.53;5099149;28;20531;-78
2021/06/27 06:00:21;;;;;;;40.90;37.80;;;;;;;22.51;100.00;100906.34;5103471;28;20499;-80
2021/06/27 06:02:48;;;;;;;46.78;43.38;;;;;;;22.79;100.00;100907.47;5097422;28;20051;-80
2021/06/27 06:05:15;;;;;;;49.38;45.58;;;;;;;22.93;100.00;100902.19;5104348;28;20044;-80
2021/06/27 06:07:42;;;;;;;44.30;41.17;;;;;;;22.89;100.00;100901.16;5104903;28;20044;-79
2021/06/27 06:10:12;;;;;;;48.33;44.40;;;;;;;22.83;100.00;100897.69;5098890;28;20112;-81
2021/06/27 06:12:39;;;;;;;43.20;39.90;;;;;;;23.01;100.00;100911.66;5103067;28;20048;-80
2021/06/27 06:15:07;;;;;;;47.50;43.85;;;;;;;23.08;100.00;100912.94;5099776;28;20059;-81
2021/06/27 06:17:33;;;;;;;51.55;47.85;;;;;;;23.19;100.00;100905.53;5100271;28;20048;-80
2021/06/27 06:20:00;;;;;;;52.85;48.97;;;;;;;23.20;100.00;100901.72;5100314;28;20055;-80
2021/06/27 06:22:28;;;;;;;58.22;54.20;;;;;;;23.22;100.00;100904.16;5099792;28;20044;-80
2021/06/27 06:24:54;;;;;;;66.03;61.00;;;;;;;23.12;100.00;100912.34;5101001;28;20469;-83
2021/06/27 06:27:23;;;;;;;62.72;58.22;;;;;;;23.23;100.00;100906.56;5097939;28;20380;-80
2021/06/27 06:29:49;;;;;;;58.05;53.45;;;;;;;23.16;100.00;100913.41;5101829;28;20056;-80
2021/06/27 06:32:17;;;;;;;69.80;65.10;;;;;;;23.42;100.00;100912.09;5109521;28;20052;-79
2021/06/27 06:34:44;;;;;;;66.03;60.97;;;;;;;23.70;100.00;100913.16;5099195;28;20052;-79
2021/06/27 06:37:12;;;;;;;67.15;62.47;;;;;;;23.74;100.00;100921.50;5097241;28;20429;-78
2021/06/27 06:39:39;;;;;;;69.32;64.25;;;;;;;23.83;100.00;100919.78;5103363;28;20523;-79
2021/06/27 06:42:06;;;;;;;58.03;54.13;;;;;;;23.55;100.00;100921.44;5095913;28;20059;-81
2021/06/27 06:44:35;;;;;;;67.70;62.90;;;;;;;23.77;100.00;100920.94;5100717;28;20109;-82
2021/06/27 06:47:01;;;;;;;67.28;62.38;;;;;;;23.88;100.00;100927.84;5095862;28;20041;-79
2021/06/27 06:49:28;;;;;;;57.55;53.33;;;;;;;23.88;100.00;100932.47;5100141;28;20055;-81
2021/06/27 06:51:55;;;;;;;62.17;57.58;;;;;;;24.10;100.00;100930.00;5100262;28;20052;-81
2021/06/27 06:54:22;;;;;;;54.33;50.13;;;;;;;24.15;100.00;100916.38;5102047;28;20048;-80
2021/06/27 06:56:49;;;;;;;46.38;42.88;;;;;;;24.02;100.00;100917.09;5101370;28;20097;-79
2021/06/27 06:59:16;;;;;;;52.75;48.70;;;;;;;24.17;100.00;100916.88;5102598;28;20055;-82
2021/06/27 07:01:44;;;;;;;40.78;37.30;;;;;;;24.14;100.00;100916.66;5096060;28;20067;-79
2021/06/27 07:04:12;;;;;;;36.92;34.20;;;;;;;24.27;100.00;100912.41;5097282;28;20604;-80
2021/06/27 07:06:38;;;;;;;44.38;40.58;;;;;;;24.47;100.00;100906.72;5097706;28;20067;-79
2021/06/27 07:09:06;;;;;;;36.85;33.58;;;;;;;24.58;100.00;100910.91;5100405;28;20059;-79
2021/06/27 07:11:33;;;;;;;40.92;37.70;;;;;;;24.57;100.00;100908.47;5098003;28;20051;-81
2021/06/27 07:14:00;;;;;;;41.63;38.63;;;;;;;24.65;100.00;100905.09;5098547;28;20102;-80
2021/06/27 07:16:27;;;;;;;38.30;35.17;;;;;;;24.25;100.00;100899.16;5101310;28;20048;-81
2021/06/27 07:18:56;;;;;;;44.95;41.60;;;;;;;24.67;100.00;100908.34;5095768;28;20063;-80
2021/06/27 07:21:23;;;;;;;46.13;42.30;;;;;;;24.70;100.00;100896.06;5098578;28;20388;-80
2021/06/27 07:23:50;;;;;;;48.85;44.22;;;;;;;25.09;100.00;100909.28;5098781;28;20450;-80
2021/06/27 07:26:17;;;;;;;49.70;46.00;;;;;;;25.10;100.00;100908.97;5098921;28;20055;-80
2021/06/27 07:28:43;;;;;;;46.90;43.30;;;;;;;24.96;100.00;100904.59;5099973;28;20063;-80
2021/06/27 07:31:10;;;;;;;43.42;39.90;;;;;;;25.09;100.00;100898.41;5100245;28;20052;-80
2021/06/27 07:33:37;;;;;;;44.15;40.95;;;;;;;25.22;100.00;100907.72;5099987;28;20052;-80
2021/06/27 07:36:06;;;;;;;49.10;45.50;;;;;;;25.63;100.00;100907.75;5096910;28;20048;-80
2021/06/27 07:38:33;;;;;;;47.03;43.58;;;;;;;25.78;100.00;100912.88;5100276;28;20048;-79
2021/06/27 07:41:00;;;;;;;39.60;36.63;;;;;;;25.94;100.00;100918.84;5097585;28;20412;-80
2021/06/27 07:43:27;;;;;;;41.55;38.60;;;;;;;26.04;100.00;100918.59;5099207;28;21396;-78
2021/06/27 07:45:54;;;;;;;45.35;42.15;;;;;;;26.00;100.00;100920.34;5097436;28;20066;-79
2021/06/27 07:48:21;;;;;;;35.85;32.92;;;;;;;25.85;100.00;100909.78;5094158;28;20024;-81
2021/06/27 07:50:48;;;;;;;38.08;35.17;;;;;;;25.84;100.00;100921.78;5097411;28;20051;-81
2021/06/27 07:53:16;;;;;;;36.70;33.88;;;;;;;25.83;100.00;100913.91;5102048;28;20054;-84
2021/06/27 07:55:43;;;;;;;35.47;32.85;;;;;;;25.65;100.00;100910.94;5096959;28;20048;-81
2021/06/27 07:58:10;;;;;;;32.33;29.70;;;;;;;25.61;100.00;100903.72;5096679;28;20056;-80
2021/06/27 08:00:37;;;;;;;33.53;30.75;;;;;;;25.84;100.00;100907.34;5096168;28;20044;-79
2021/06/27 08:03:05;;;;;;;30.52;28.20;;;;;;;25.84;100.00;100899.19;5098909;28;20117;-79
2021/06/27 08:05:31;;;;;;;49.13;45.38;;;;;;;26.31;100.00;100916.13;5097243;28;20048;-81
2021/06/27 08:07:58;;;;;;;37.45;34.47;;;;;;;26.35;100.00;100903.50;5101239;28;20044;-79
2021/06/27 08:10:28;;;;;;;31.15;28.67;;;;;;;26.37;100.00;100901.28;5096550;28;20059;-79
2021/06/27 08:12:56;;;;;;;32.88;30.08;;;;;;;26.42;100.00;100904.72;5095884;28;20055;-80
2021/06/27 08:15:23;;;;;;;41.75;37.88;;;;;;;26.69;100.00;100912.00;5094949;28;20051;-80
2021/06/27 08:17:52;;;;;;;28.90;26.65;;;;;;;26.36;100.00;100914.09;5098053;28;20052;-79
2021/06/27 08:20:21;;;;;;;28.98;26.45;;;;;;;26.20;100.00;100910.09;5096928;28;20392;-80
2021/06/27 08:22:50;;;;;;;30.02;26.95;;;;;;;26.23;100.00;100904.88;5099160;28;20035;-83
2021/06/27 08:25:17;;;;;;;31.10;27.90;;;;;;;26.09;100.00;100911.47;5097230;28;20125;-81
2021/06/27 08:27:46;;;;;;;27.40;25.40;;;;;;;26.18;100.00;100918.59;5098297;28;20048;-80
2021/06/27 08:30:15;;;;;;;28.77;26.35;;;;;;;26.50;100.00;100909.44;5101511;28;20048;-80
2021/06/27 08:32:43;;;;;;;29.25;26.65;;;;;;;26.03;100.00;100908.84;5100249;28;20047;-80
2021/06/27 08:35:12;;;;;;;32.03;29.35;;;;;;;26.78;100.00;100908.50;5096844;28;20085;-80
2021/06/27 08:37:39;;;;;;;28.00;25.45;;;;;;;26.62;100.00;100908.09;5097343;28;20051;-81
2021/06/27 08:40:07;;;;;;;25.95;23.85;;;;;;;26.67;100.00;100903.31;5101400;28;20044;-86
2021/06/27 08:42:35;;;;;;;32.83;30.00;;;;;;;26.89;100.00;100907.94;5097331;28;20052;-81
2021/06/27 08:45:04;;;;;;;28.85;26.55;;;;;;;26.92;100.00;100903.81;5096176;28;20055;-79
2021/06/27 08:47:33;;;;;;;28.40;25.80;;;;;;;26.66;100.00;100906.38;5098826;28;20059;-78
2021/06/27 08:50:00;;;;;;;28.73;26.45;;;;;;;26.65;100.00;100907.47;5096602;28;20484;-78
2021/06/27 08:52:27;;;;;;;29.10;26.90;;;;;;;26.81;100.00;100897.00;5096743;28;20191;-79
2021/06/27 08:54:54;;;;;;;28.83;26.42;;;;;;;26.74;100.00;100897.44;5094425;28;20048;-79
2021/06/27 08:57:21;;;;;;;28.73;26.52;;;;;;;26.57;100.00;100894.59;5102751;28;20105;-81
2021/06/27 08:59:48;;;;;;;26.88;24.58;;;;;;;27.10;100.00;100893.81;5095070;28;20047;-80
2021/06/27 09:02:16;;;;;;;26.90;24.23;;;;;;;27.51;100.00;100900.91;5086961;28;20059;-80
2021/06/27 09:04:45;;;;;;;27.80;25.38;;;;;;;27.21;100.00;100894.38;5093500;28;20177;-78
2021/06/27 09:07:28;;;;;;;27.63;24.83;;;;;;;27.49;100.00;100901.22;5093561;28;20384;-80
2021/06/27 09:09:56;;;;;;;27.15;25.00;;;;;;;27.62;100.00;100896.75;5097126;28;20487;-79
2021/06/27 09:12:23;;;;;;;28.30;25.80;;;;;;;27.57;100.00;100891.47;5095887;28;20086;-78
2021/06/27 09:14:54;;;;;;;27.10;24.65;;;;;;;27.60;100.00;100891.66;5099390;28;20043;-78
2021/06/27 09:17:24;;;;;;;27.00;24.77;;;;;;;27.98;100.00;100893.84;5098922;28;20079;-78
2021/06/27 09:19:59;;;;;;;27.48;25.15;;;;;;;27.82;100.00;100901.66;5097413;28;20036;-78
2021/06/27 09:22:28;;;;;;;27.58;25.17;;;;;;;27.75;100.00;100900.53;5093196;28;20044;-78
2021/06/27 09:24:55;;;;;;;28.60;26.15;;;;;;;27.68;100.00;100891.97;5096238;28;20052;-80
2021/06/27 09:27:24;;;;;;;27.30;25.10;;;;;;;27.94;100.00;100886.63;5099135;28;20466;-80
2021/06/27 09:29:53;;;;;;;27.63;25.25;;;;;;;27.35;100.00;100885.00;5095594;28;20050;-82
2021/06/27 09:32:21;;;;;;;28.27;25.65;;;;;;;27.54;100.00;100881.19;5098235;28;20052;-78
2021/06/27 09:34:50;;;;;;;31.92;29.25;;;;;;;27.97;100.00;100877.78;5096828;28;20048;-80
2021/06/27 09:37:29;;;;;;;28.90;26.33;;;;;;;28.41;100.00;100878.63;5097920;28;20062;-79
2021/06/27 09:39:57;;;;;;;29.80;27.58;;;;;;;27.77;100.00;100873.69;5094227;28;20044;-78
2021/06/27 09:42:25;;;;;;;33.58;30.90;;;;;;;28.63;100.00;100874.94;5099977;28;20048;-80
2021/06/27 09:45:05;;;;;;;28.08;25.55;;;;;;;28.46;100.00;100873.00;5095213;28;20048;-79
2021/06/27 09:47:33;;;;;;;28.75;26.10;;;;;;;28.17;100.00;100876.34;5094731;28;20048;-80
2021/06/27 09:50:01;;;;;;;28.45;25.85;;;;;;;27.90;100.00;100872.81;5096269;28;20084;-81
2021/06/27 09:52:39;;;;;;;28.15;25.95;;;;;;;28.74;100.00;100870.69;5095427;28;20055;-79
2021/06/27 09:55:07;;;;;;;29.30;26.98;;;;;;;28.91;100.00;100865.19;5097452;28;20404;-81
2021/06/27 09:57:34;;;;;;;29.40;26.92;;;;;;;28.91;100.00;100865.19;5098477;28;20048;-79
2021/06/27 10:00:01;;;;;;;28.00;25.63;;;;;;;28.97;100.00;100865.84;5095716;28;20121;-82
2021/06/27 10:02:28;;;;;;;29.73;27.30;;;;;;;29.14;100.00;100865.81;5098432;28;20497;-80
2021/06/27 10:04:55;;;;;;;29.02;26.48;;;;;;;29.26;100.00;100865.13;5100913;28;20058;-81
2021/06/27 10:07:38;;;;;;;28.52;26.15;;;;;;;28.80;100.00;100860.41;5096089;28;20052;-80
2021/06/27 10:10:18;;;;;;;28.80;26.40;;;;;;;28.91;100.00;100854.25;5094929;28;20157;-79
2021/06/27 10:12:45;;;;;;;28.80;26.27;;;;;;;28.29;100.00;100862.84;5093108;28;20557;-80
2021/06/27 10:15:14;;;;;;;27.58;25.30;;;;;;;28.62;100.00;100856.91;5099007;28;20055;-80
2021/06/27 10:17:42;;;;;;;27.23;25.10;;;;;;;28.15;100.00;100854.03;5095096;28;20088;-79
2021/06/27 10:20:13;;;;;;;30.70;28.20;;;;;;;28.89;100.00;100855.72;5096471;28;20487;-81
2021/06/27 10:22:42;;;;;;;28.17;25.73;;;;;;;29.10;100.00;100853.09;5098198;28;20075;-84
2021/06/27 10:25:12;;;;;;;26.85;24.70;;;;;;;29.34;100.00;100867.00;5093912;28;20424;-79
2021/06/27 10:27:39;;;;;;;27.27;24.73;;;;;;;29.04;100.00;100857.94;5099811;28;20067;-84
2021/06/27 10:30:08;;;;;;;27.08;25.08;;;;;;;29.59;100.00;100858.97;5095019;28;20055;-80
2021/06/27 10:32:41;;;;;;;28.02;25.83;;;;;;;29.61;100.00;100865.75;5074413;28;20052;-80
2021/06/27 10:35:10;;;;;;;28.67;26.35;;;;;;;29.37;100.00;100854.59;5080157;28;20127;-79
2021/06/27 10:37:39;;;;;;;29.30;26.75;;;;;;;28.69;100.00;100859.97;5080820;28;20044;-81
2021/06/27 10:40:11;;;;;;;30.58;28.10;;;;;;;29.49;100.00;100862.09;5087005;28;20052;-83
2021/06/27 10:42:58;;;;;;;31.77;29.08;;;;;;;29.70;100.00;100862.97;5084863;28;20053;-81
2021/06/27 10:45:30;;;;;;;28.65;26.10;;;;;;;29.71;100.00;100861.03;5086953;28;20070;-79
2021/06/27 10:48:00;;;;;;;28.67;26.20;;;;;;;29.41;100.00;100861.00;5084133;28;20044;-80
2021/06/27 10:50:50;;;;;;;28.90;26.58;;;;;;;29.50;100.00;100858.22;5087664;28;20067;-79
2021/06/27 10:53:17;;;;;;;32.42;29.58;;;;;;;29.98;100.00;100863.25;5083354;28;20040;-79
2021/06/27 10:55:45;;;;;;;27.75;25.65;;;;;;;29.98;100.00;100852.31;5082443;28;20049;-79
2021/06/27 10:58:14;;;;;;;30.48;27.55;;;;;;;29.66;100.00;100851.88;5095320;28;20055;-79
2021/06/27 11:01:10;;;;;;;29.40;27.08;;;;;;;29.54;100.00;100854.50;5094085;28;20438;-79
2021/06/27 11:03:40;;;;;;;30.33;27.88;;;;;;;29.75;100.00;100859.25;5054438;28;20059;-77